Time;durP1;ratioP1;P1;durP2;ratioP2;P2;SDS_P1;SDS_P2;PMS_P1;PMS_P2;Temp;Humidity;BMP_temperature;BMP_pressure;BME280_temperature;BME280_humidity;BME280_pressure;Samples;Min_cycle;Max_cycle;Signal;HPM_P1;HPM_P2
2021/07/14 00:02:15;;;;;;;62.30;43.38;;;;;;;18.85;100.00;100604.22;5073032;28;20078;-71
2021/07/14 00:04:42;;;;;;;63.05;42.42;;;;;;;18.85;100.00;100611.28;5066174;28;20041;-70
2021/07/14 00:07:10;;;;;;;60.10;40.97;;;;;;;18.85;100.00;100619.19;5063338;28;20040;-69
2021/07/14 00:09:36;;;;;;;64.30;41.63;;;;;;;18.80;100.00;100615.00;5062358;28;20544;-69
2021/07/14 00:12:06;;;;;;;61.72;42.70;;;;;;;18.82;100.00;100609.66;5063689;28;20052;-71
2021/07/14 00:14:56;;;;;;;65.80;43.22;;;;;;;18.80;100.00;100617.66;5064672;28;20048;-71
2021/07/14 00:17:34;;;;;;;61.97;42.30;;;;;;;18.77;100.00;100616.97;5066997;28;20040;-70
2021/07/14 00:22:46;;;;;;;65.35;44.53;;;;;;;18.72;100.00;100611.09;5064714;28;20179;-68
2021/07/14 00:25:14;;;;;;;69.35;45.20;;;;;;;18.71;100.00;100622.59;5061149;28;20056;-69
2021/07/14 00:27:44;;;;;;;71.30;44.72;;;;;;;18.77;100.00;100627.50;5069790;28;20052;-68
2021/07/14 00:30:15;;;;;;;63.15;43.20;;;;;;;18.76;100.00;100624.03;5064612;28;20055;-70
2021/07/14 00:32:42;;;;;;;60.70;41.50;;;;;;;18.76;100.00;100628.44;5065003;28;20128;-69
2021/07/14 00:35:10;;;;;;;63.97;41.03;;;;;;;18.84;100.00;100626.22;5065699;28;20175;-70
2021/07/14 00:37:36;;;;;;;63.13;41.75;;;;;;;18.90;100.00;100628.53;5059758;28;20041;-68
2021/07/14 00:40:07;;;;;;;58.95;41.45;;;;;;;18.88;100.00;100627.78;5062105;28;20051;-69
2021/07/14 00:42:34;;;;;;;69.57;43.05;;;;;;;18.87;100.00;100633.97;5068464;28;20044;-70
2021/07/14 00:45:00;;;;;;;59.92;40.35;;;;;;;18.86;100.00;100637.53;5061362;28;20048;-69
2021/07/14 00:47:31;;;;;;;68.40;44.33;;;;;;;18.81;100.00;100631.69;5068852;28;20052;-69
2021/07/14 00:49:58;;;;;;;64.22;42.67;;;;;;;18.78;100.00;100631.84;5065948;28;20044;-70
2021/07/14 00:52:24;;;;;;;62.85;42.60;;;;;;;18.84;100.00;100631.50;5058170;28;20044;-69
2021/07/14 00:54:51;;;;;;;68.07;42.45;;;;;;;18.76;100.00;100636.34;5068054;28;20502;-69
2021/07/14 00:57:21;;;;;;;68.00;43.33;;;;;;;18.76;100.00;100636.34;5070757;28;20543;-69
2021/07/14 00:59:47;;;;;;;71.05;44.78;;;;;;;18.72;100.00;100635.69;5060377;28;20546;-70
2021/07/14 01:02:14;;;;;;;65.22;42.38;;;;;;;18.78;100.00;100631.84;5067531;28;20041;-68
2021/07/14 01:04:43;;;;;;;65.22;42.97;;;;;;;18.74;100.00;100638.22;5066952;28;20105;-69
2021/07/14 01:07:16;;;;;;;67.20;43.25;;;;;;;18.76;100.00;100641.63;5062282;28;20041;-69
2021/07/14 01:09:48;;;;;;;67.88;43.03;;;;;;;18.77;100.00;100632.78;5068611;28;20121;-70
2021/07/14 01:12:26;;;;;;;65.18;43.00;;;;;;;18.80;100.00;100632.63;5067383;28;20479;-69
2021/07/14 01:15:02;;;;;;;69.55;41.50;;;;;;;18.82;100.00;100632.53;5059032;28;20113;-69
2021/07/14 01:17:32;;;;;;;71.50;44.45;;;;;;;18.82;100.00;100632.53;5067708;28;20056;-69
2021/07/14 01:20:10;;;;;;;80.85;44.85;;;;;;;18.74;100.00;100627.69;5061766;28;20498;-69
2021/07/14 01:22:45;;;;;;;68.63;43.67;;;;;;;18.75;100.00;100630.25;5065627;28;20052;-68
2021/07/14 01:25:25;;;;;;;63.65;42.88;;;;;;;18.73;100.00;100626.84;5061057;28;20095;-70
2021/07/14 01:27:58;;;;;;;64.85;41.83;;;;;;;18.74;100.00;100622.41;5068429;28;20048;-70
2021/07/14 01:30:25;;;;;;;65.78;43.65;;;;;;;18.69;100.00;100624.47;5069528;28;20506;-69
2021/07/14 01:32:53;;;;;;;70.40;43.58;;;;;;;18.70;100.00;100623.53;5077686;28;20625;-69
2021/07/14 01:35:24;;;;;;;74.25;44.78;;;;;;;18.65;100.00;100619.34;5067669;28;20104;-69
2021/07/14 01:37:51;;;;;;;70.72;43.95;;;;;;;18.62;100.00;100619.50;5062616;28;20094;-68
2021/07/14 01:40:22;;;;;;;68.28;44.08;;;;;;;18.62;100.00;100616.03;5068606;28;20049;-70
2021/07/14 01:42:56;;;;;;;75.65;44.50;;;;;;;18.67;100.00;100615.78;5071814;28;20490;-69
2021/07/14 01:45:27;;;;;;;62.80;42.42;;;;;;;18.68;100.00;100606.94;5062338;28;20055;-70
2021/07/14 01:47:55;;;;;;;75.82;42.83;;;;;;;18.64;100.00;100607.09;5069777;28;20051;-70
2021/07/14 01:50:23;;;;;;;72.28;43.95;;;;;;;18.60;100.00;100608.22;5067908;28;21628;-70
2021/07/14 01:52:51;;;;;;;67.22;42.10;;;;;;;18.62;100.00;100608.97;5068469;28;20048;-69
2021/07/14 01:55:19;;;;;;;70.85;44.38;;;;;;;18.60;100.00;100605.59;5062566;28;20130;-70
2021/07/14 01:57:47;;;;;;;66.65;43.40;;;;;;;18.60;100.00;100605.59;5066424;28;20048;-69
2021/07/14 02:00:16;;;;;;;65.78;43.00;;;;;;;18.55;100.00;100596.25;5062601;28;20106;-70
2021/07/14 02:02:51;;;;;;;64.50;42.15;;;;;;;18.53;100.00;100592.84;5073271;28;20049;-69
2021/07/14 02:05:18;;;;;;;68.53;43.58;;;;;;;18.54;100.00;100592.75;5069150;28;20133;-70
2021/07/14 02:07:45;;;;;;;64.70;41.65;;;;;;;18.53;100.00;100596.31;5070565;28;20436;-70
2021/07/14 02:10:13;;;;;;;67.43;44.70;;;;;;;18.48;100.00;100587.81;5071081;28;20045;-70
2021/07/14 02:12:44;;;;;;;66.72;42.20;;;;;;;18.51;100.00;100589.44;5073362;28;20041;-69
2021/07/14 02:15:12;;;;;;;68.30;43.05;;;;;;;18.51;100.00;100595.56;5068823;28;20052;-71
2021/07/14 02:17:44;;;;;;;68.70;42.75;;;;;;;18.46;100.00;100592.31;5071920;28;20102;-70
2021/07/14 02:20:15;;;;;;;65.47;43.42;;;;;;;18.45;100.00;100593.25;5070330;28;20048;-70
2021/07/14 02:22:41;;;;;;;62.03;41.10;;;;;;;18.49;100.00;100597.44;5067658;28;20049;-70
2021/07/14 02:25:09;;;;;;;67.25;42.40;;;;;;;18.43;100.00;100595.13;5065735;28;20040;-70
2021/07/14 02:27:36;;;;;;;71.70;43.85;;;;;;;18.39;100.00;100596.22;5072960;28;20456;-70
2021/07/14 02:30:06;;;;;;;72.35;44.10;;;;;;;18.41;100.00;100591.75;5074632;28;20052;-71
2021/07/14 02:32:33;;;;;;;66.10;43.63;;;;;;;18.42;100.00;100590.78;5068325;28;20139;-70
2021/07/14 02:35:00;;;;;;;69.00;43.85;;;;;;;18.45;100.00;100587.97;5071461;28;20049;-71
2021/07/14 02:37:35;;;;;;;66.72;42.70;;;;;;;18.43;100.00;100588.06;5068152;28;20048;-71
2021/07/14 02:40:02;;;;;;;63.17;41.22;;;;;;;18.44;100.00;100586.28;5058241;28;20053;-70
2021/07/14 02:42:31;;;;;;;69.60;43.35;;;;;;;18.45;100.00;100580.09;5072903;28;20102;-71
2021/07/14 02:45:01;;;;;;;68.35;42.97;;;;;;;18.43;100.00;100580.19;5062945;28;20131;-71
2021/07/14 02:47:35;;;;;;;62.90;42.42;;;;;;;18.44;100.00;100575.75;5070179;28;20044;-70
2021/07/14 02:50:05;;;;;;;71.03;42.73;;;;;;;18.40;100.00;100580.34;5060604;28;20055;-71
2021/07/14 02:52:34;;;;;;;66.65;42.90;;;;;;;18.40;100.00;100571.59;5070616;28;20083;-70
2021/07/14 02:55:02;;;;;;;66.35;42.45;;;;;;;18.41;100.00;100563.59;5068458;28;20048;-70
2021/07/14 02:57:32;;;;;;;69.72;40.92;;;;;;;18.44;100.00;100570.47;5073174;28;20494;-70
2021/07/14 03:00:00;;;;;;;64.03;42.05;;;;;;;18.45;100.00;100569.53;5059797;28;20456;-70
2021/07/14 03:02:28;;;;;;;69.95;43.78;;;;;;;18.37;100.00;100563.84;5073756;28;20052;-70
2021/07/14 03:04:56;;;;;;;63.33;40.17;;;;;;;18.34;100.00;100567.50;5063968;28;20053;-70
2021/07/14 03:07:26;;;;;;;61.20;40.88;;;;;;;18.33;100.00;100566.66;5063475;28;20051;-68
2021/07/14 03:09:53;;;;;;;64.38;42.17;;;;;;;18.33;100.00;100566.66;5062521;28;20067;-71
2021/07/14 03:12:23;;;;;;;68.47;42.97;;;;;;;18.33;100.00;100566.66;5066228;28;20087;-69
2021/07/14 03:14:53;;;;;;;62.28;40.88;;;;;;;18.30;100.00;100577.38;5067149;28;20434;-71
2021/07/14 03:17:20;;;;;;;63.45;41.85;;;;;;;18.29;100.00;100573.03;5067739;28;20045;-70
2021/07/14 03:19:49;;;;;;;66.13;41.22;;;;;;;18.37;100.00;100569.13;5067514;28;20444;-71
2021/07/14 03:22:16;;;;;;;60.95;41.25;;;;;;;18.30;100.00;100561.56;5059709;28;20064;-71
2021/07/14 03:24:46;;;;;;;60.78;39.50;;;;;;;18.37;100.00;100569.13;5062810;28;20048;-70
2021/07/14 03:27:14;;;;;;;61.97;39.67;;;;;;;18.29;100.00;100562.50;5070088;28;20048;-70
2021/07/14 03:29:41;;;;;;;66.72;41.33;;;;;;;18.25;100.00;100558.31;5065645;28;20041;-69
2021/07/14 03:32:10;;;;;;;63.63;40.28;;;;;;;18.25;100.00;100553.06;5068191;28;20045;-71
2021/07/14 03:34:37;;;;;;;68.55;40.78;;;;;;;18.27;100.00;100555.59;5067789;28;20098;-70
2021/07/14 03:37:06;;;;;;;61.50;39.83;;;;;;;18.31;100.00;100558.00;5057516;28;20131;-70
2021/07/14 03:39:33;;;;;;;63.28;41.13;;;;;;;18.29;100.00;100559.88;5064929;28;20094;-71
2021/07/14 03:42:03;;;;;;;65.07;41.28;;;;;;;18.28;100.00;100565.19;5071160;28;20048;-70
2021/07/14 03:44:30;;;;;;;61.35;40.38;;;;;;;18.29;100.00;100559.00;5059120;28;20090;-71
2021/07/14 03:46:58;;;;;;;63.20;42.50;;;;;;;18.30;100.00;100564.22;5064289;28;20040;-70
2021/07/14 03:49:25;;;;;;;65.75;42.83;;;;;;;18.24;100.00;100561.06;5065265;28;20140;-71
2021/07/14 03:51:52;;;;;;;65.82;41.85;;;;;;;18.23;100.00;100557.56;5064014;28;20053;-70
2021/07/14 03:54:20;;;;;;;66.72;41.95;;;;;;;18.25;100.00;100558.31;5070651;28;20048;-70
2021/07/14 03:56:47;;;;;;;60.95;40.95;;;;;;;18.24;100.00;100561.88;5068145;28;20072;-70
2021/07/14 03:59:16;;;;;;;58.58;38.67;;;;;;;18.24;100.00;100567.16;5058451;28;20037;-69
2021/07/14 04:01:44;;;;;;;62.40;40.63;;;;;;;18.24;100.00;100571.59;5057591;28;20060;-72
2021/07/14 04:04:12;;;;;;;62.25;40.90;;;;;;;18.25;100.00;100563.59;5062379;28;20055;-72
2021/07/14 04:06:40;;;;;;;57.67;38.28;;;;;;;18.27;100.00;100561.72;5064548;28;20044;-71
2021/07/14 04:09:22;;;;;;;57.63;38.30;;;;;;;18.29;100.00;100566.91;5059736;28;20053;-71
2021/07/14 04:11:51;;;;;;;61.00;38.33;;;;;;;18.25;100.00;100563.59;5067768;28;20456;-70
2021/07/14 04:14:19;;;;;;;60.70;38.80;;;;;;;18.20;100.00;100559.50;5063697;28;20106;-69
2021/07/14 04:16:45;;;;;;;58.95;39.10;;;;;;;18.25;100.00;100568.03;5065162;28;20064;-71
2021/07/14 04:19:12;;;;;;;61.70;38.53;;;;;;;18.26;100.00;100562.66;5064146;28;20094;-69
2021/07/14 04:21:38;;;;;;;56.25;36.28;;;;;;;18.30;100.00;100561.56;5061123;28;20045;-71
2021/07/14 04:24:05;;;;;;;59.15;36.47;;;;;;;18.24;100.00;100559.25;5065851;28;20048;-71
2021/07/14 04:26:32;;;;;;;57.85;36.20;;;;;;;18.18;100.00;100556.97;5067304;28;20048;-69
2021/07/14 04:28:58;;;;;;;56.60;35.92;;;;;;;18.22;100.00;100557.66;5065618;28;20041;-70
2021/07/14 04:31:26;;;;;;;60.25;36.90;;;;;;;18.12;100.00;100558.16;5064073;28;20048;-70
2021/07/14 04:33:52;;;;;;;59.13;36.15;;;;;;;18.14;100.00;100558.06;5063798;28;20473;-71
2021/07/14 04:36:19;;;;;;;56.55;36.92;;;;;;;18.08;100.00;100555.75;5068212;28;20045;-70
2021/07/14 04:38:45;;;;;;;62.13;37.00;;;;;;;18.10;100.00;100553.91;5064880;28;20055;-71
2021/07/14 04:41:12;;;;;;;61.22;36.50;;;;;;;18.12;100.00;100549.38;5067597;28;20090;-68
2021/07/14 04:43:38;;;;;;;58.53;34.80;;;;;;;18.20;100.00;100560.38;5069143;28;20048;-70
2021/07/14 04:46:05;;;;;;;52.90;34.88;;;;;;;18.14;100.00;100552.78;5064332;28;20580;-71
2021/07/14 04:48:33;;;;;;;52.33;33.13;;;;;;;18.18;100.00;100551.69;5058789;28;20091;-69
2021/07/14 04:51:00;;;;;;;51.08;33.80;;;;;;;18.12;100.00;100552.88;5059101;28;20468;-69
2021/07/14 04:53:26;;;;;;;52.70;34.55;;;;;;;18.12;100.00;100552.88;5068072;28;20548;-71
2021/07/14 04:55:52;;;;;;;55.00;33.28;;;;;;;18.08;100.00;100561.84;5068774;28;20514;-69
2021/07/14 04:58:19;;;;;;;50.10;32.00;;;;;;;18.12;100.00;100558.16;5063850;28;20052;-70
2021/07/14 05:00:46;;;;;;;57.88;33.50;;;;;;;18.13;100.00;100548.44;5062015;28;20048;-70
2021/07/14 05:03:12;;;;;;;51.33;31.83;;;;;;;18.21;100.00;100554.19;5064989;28;20064;-72
2021/07/14 05:05:40;;;;;;;50.60;30.17;;;;;;;18.25;100.00;100553.06;5063442;28;20059;-71
2021/07/14 05:08:06;;;;;;;49.67;30.65;;;;;;;18.26;100.00;100554.75;5069652;28;20040;-71
2021/07/14 05:10:33;;;;;;;47.53;29.30;;;;;;;18.28;100.00;100552.91;5064472;28;20059;-71
2021/07/14 05:12:59;;;;;;;42.35;27.33;;;;;;;18.34;100.00;100552.56;5064872;28;20056;-70
2021/07/14 05:15:26;;;;;;;47.33;29.08;;;;;;;18.32;100.00;100558.84;5060117;28;20099;-70
2021/07/14 05:17:53;;;;;;;46.17;27.90;;;;;;;18.27;100.00;100561.72;5067600;28;20053;-69
2021/07/14 05:20:19;;;;;;;48.45;28.15;;;;;;;18.23;100.00;100561.97;5060107;28;20429;-69
2021/07/14 05:22:47;;;;;;;47.88;26.77;;;;;;;18.23;100.00;100568.09;5066826;28;20048;-70
2021/07/14 05:25:15;;;;;;;41.92;26.30;;;;;;;18.30;100.00;100558.94;5067548;28;20044;-69
2021/07/14 05:27:42;;;;;;;41.35;25.50;;;;;;;18.30;100.00;100565.97;5067390;28;20091;-70
2021/07/14 05:30:10;;;;;;;45.85;26.75;;;;;;;18.27;100.00;100567.00;5065209;28;20383;-71
2021/07/14 05:32:37;;;;;;;45.25;26.60;;;;;;;18.25;100.00;100560.13;5056512;28;20528;-69
2021/07/14 05:35:06;;;;;;;45.10;27.02;;;;;;;18.27;100.00;100572.25;5060444;28;20395;-69
2021/07/14 05:37:33;;;;;;;44.97;26.10;;;;;;;18.30;100.00;100571.25;5064531;28;20055;-71
2021/07/14 05:40:01;;;;;;;42.47;25.92;;;;;;;18.29;100.00;100580.06;5066354;28;20776;-70
2021/07/14 05:42:28;;;;;;;41.47;25.40;;;;;;;18.25;100.00;100579.38;5061640;28;20048;-70
2021/07/14 05:44:54;;;;;;;46.22;24.60;;;;;;;18.23;100.00;100578.63;5062655;28;20044;-70
2021/07/14 05:47:21;;;;;;;46.47;26.90;;;;;;;18.24;100.00;100580.31;5059791;28;20098;-70
2021/07/14 05:49:47;;;;;;;44.70;26.02;;;;;;;18.20;100.00;100586.69;5056569;28;20044;-70
2021/07/14 05:52:14;;;;;;;46.80;24.90;;;;;;;18.27;100.00;100584.56;5059852;28;20044;-69
2021/07/14 05:54:41;;;;;;;37.00;24.83;;;;;;;18.23;100.00;100588.31;5065937;28;20706;-70
2021/07/14 05:57:09;;;;;;;39.33;24.92;;;;;;;18.23;100.00;100591.78;5067851;28;20045;-69
2021/07/14 05:59:35;;;;;;;44.40;25.52;;;;;;;18.27;100.00;100579.28;5062323;28;20064;-70
2021/07/14 06:02:03;;;;;;;41.90;25.10;;;;;;;18.29;100.00;100580.06;5066266;28;20411;-70
2021/07/14 06:04:29;;;;;;;46.15;25.40;;;;;;;18.28;100.00;100578.38;5060162;28;20055;-70
2021/07/14 06:06:56;;;;;;;39.47;24.48;;;;;;;18.29;100.00;100578.31;5059719;28;20413;-70
2021/07/14 06:09:23;;;;;;;41.60;24.30;;;;;;;18.30;100.00;100584.41;5067479;28;20040;-70
2021/07/14 06:11:49;;;;;;;45.83;24.85;;;;;;;18.29;100.00;100583.56;5068079;28;20575;-70
2021/07/14 06:14:17;;;;;;;41.10;24.83;;;;;;;18.24;100.00;100588.22;5059561;28;20083;-69
2021/07/14 06:16:44;;;;;;;42.38;23.90;;;;;;;18.26;100.00;100586.34;5069799;28;20041;-70
2021/07/14 06:19:11;;;;;;;43.88;25.13;;;;;;;18.26;100.00;100585.53;5062221;28;20090;-71
2021/07/14 06:21:37;;;;;;;41.83;25.15;;;;;;;18.31;100.00;100583.47;5061680;28;20048;-70
2021/07/14 06:24:04;;;;;;;42.95;25.45;;;;;;;18.32;100.00;100593.06;5069730;28;20048;-70
2021/07/14 06:26:31;;;;;;;37.10;23.60;;;;;;;18.31;100.00;100588.75;5068085;28;20060;-70
2021/07/14 06:28:57;;;;;;;41.22;24.70;;;;;;;18.30;100.00;100587.03;5066034;28;20410;-71
2021/07/14 06:31:25;;;;;;;38.83;24.40;;;;;;;18.27;100.00;100587.19;5066171;28;20056;-70
2021/07/14 06:33:51;;;;;;;40.45;24.10;;;;;;;18.25;100.00;100579.38;5066371;28;20052;-70
2021/07/14 06:36:19;;;;;;;42.47;24.48;;;;;;;18.30;100.00;100581.78;5063227;28;20052;-71
2021/07/14 06:38:45;;;;;;;40.50;25.25;;;;;;;18.39;100.00;100586.53;5067970;28;20114;-71
2021/07/14 06:41:16;;;;;;;38.97;23.95;;;;;;;18.41;100.00;100587.31;5068745;28;20063;-70
2021/07/14 06:43:45;;;;;;;41.10;24.63;;;;;;;18.39;100.00;100583.06;5067272;28;20079;-70
2021/07/14 06:46:13;;;;;;;40.08;24.30;;;;;;;18.44;100.00;100595.06;5070938;28;20048;-71
2021/07/14 06:48:41;;;;;;;36.75;23.15;;;;;;;18.48;100.00;100590.47;5061858;28;20444;-70
2021/07/14 06:51:08;;;;;;;33.10;22.80;;;;;;;18.48;100.00;100593.09;5063561;28;20155;-71
2021/07/14 06:53:35;;;;;;;34.83;21.65;;;;;;;18.37;100.00;100591.03;5068839;28;20056;-69
2021/07/14 06:56:01;;;;;;;39.33;23.33;;;;;;;18.36;100.00;100596.38;5071639;28;20041;-70
2021/07/14 06:58:29;;;;;;;34.78;23.25;;;;;;;18.40;100.00;100592.66;5063098;28;20057;-70
2021/07/14 07:00:56;;;;;;;34.95;23.60;;;;;;;18.35;100.00;100592.91;5060236;28;20048;-72
2021/07/14 07:03:23;;;;;;;35.83;22.88;;;;;;;18.32;100.00;100590.44;5067996;28;20060;-69
2021/07/14 07:05:51;;;;;;;35.72;23.13;;;;;;;18.32;100.00;100591.28;5066272;28;20490;-68
2021/07/14 07:08:17;;;;;;;38.95;23.38;;;;;;;18.41;100.00;100589.94;5070317;28;20048;-69
2021/07/14 07:10:45;;;;;;;33.88;21.45;;;;;;;18.43;100.00;100587.22;5066847;28;20166;-72
2021/07/14 07:13:15;;;;;;;35.88;22.48;;;;;;;18.44;100.00;100591.53;5062103;28;20057;-71
2021/07/14 07:15:42;;;;;;;31.92;20.85;;;;;;;18.51;100.00;100590.31;5066583;28;20662;-68
2021/07/14 07:18:08;;;;;;;29.85;21.05;;;;;;;18.52;100.00;100594.59;5067549;28;20521;-70
2021/07/14 07:20:35;;;;;;;30.67;20.80;;;;;;;18.54;100.00;100590.09;5067429;28;20053;-71
2021/07/14 07:23:03;;;;;;;29.35;20.20;;;;;;;18.51;100.00;100595.56;5067601;28;20044;-70
2021/07/14 07:25:29;;;;;;;32.72;20.67;;;;;;;18.53;100.00;100592.84;5068044;28;20060;-70
2021/07/14 07:27:59;;;;;;;33.20;20.73;;;;;;;18.47;100.00;100597.50;5060959;28;20053;-71
2021/07/14 07:30:25;;;;;;;28.45;19.55;;;;;;;18.47;100.00;100594.03;5064824;28;20774;-71
2021/07/14 07:32:51;;;;;;;28.27;19.17;;;;;;;18.46;100.00;100595.81;5064573;28;20569;-71
2021/07/14 07:35:18;;;;;;;27.45;18.60;;;;;;;18.43;100.00;100603.88;5064830;28;20048;-69
2021/07/14 07:37:45;;;;;;;29.55;19.20;;;;;;;18.41;100.00;100599.63;5069597;28;20056;-71
2021/07/14 07:40:14;;;;;;;27.63;17.95;;;;;;;18.41;100.00;100600.47;5072333;28;20036;-71
2021/07/14 07:42:41;;;;;;;25.95;19.25;;;;;;;18.40;100.00;100598.78;5062305;28;20048;-70
2021/07/14 07:45:08;;;;;;;31.00;19.30;;;;;;;18.42;100.00;100593.41;5061642;28;20044;-70
2021/07/14 07:47:35;;;;;;;23.75;16.55;;;;;;;18.49;100.00;100593.00;5062454;28;20041;-71
2021/07/14 07:50:02;;;;;;;21.27;14.93;;;;;;;18.48;100.00;100593.09;5063517;28;20045;-71
2021/07/14 07:52:29;;;;;;;24.50;15.50;;;;;;;18.43;100.00;100593.34;5069501;28;20054;-71
2021/07/14 07:54:58;;;;;;;22.25;14.70;;;;;;;18.42;100.00;100598.69;5063294;28;20051;-71
2021/07/14 07:57:26;;;;;;;25.75;16.05;;;;;;;18.38;100.00;100602.44;5066241;28;20102;-68
2021/07/14 07:59:53;;;;;;;25.00;15.82;;;;;;;18.34;100.00;100593.84;5063527;28;20127;-70
2021/07/14 08:02:19;;;;;;;23.20;15.23;;;;;;;18.31;100.00;100600.13;5066090;28;20448;-69
2021/07/14 08:04:46;;;;;;;20.27;15.13;;;;;;;18.39;100.00;100596.22;5066147;28;20052;-71
2021/07/14 08:07:12;;;;;;;22.02;14.82;;;;;;;18.33;100.00;100582.44;5067062;28;20102;-71
2021/07/14 08:09:39;;;;;;;19.08;13.68;;;;;;;18.32;100.00;100586.00;5061907;28;20048;-71
2021/07/14 08:12:05;;;;;;;20.27;15.27;;;;;;;18.31;100.00;100588.75;5065531;28;20502;-70
2021/07/14 08:14:33;;;;;;;22.75;14.55;;;;;;;18.27;100.00;100584.56;5063105;28;20048;-70
2021/07/14 08:17:00;;;;;;;20.85;14.15;;;;;;;18.22;100.00;100590.06;5066762;28;20052;-71
2021/07/14 08:19:27;;;;;;;21.08;14.75;;;;;;;18.23;100.00;100590.94;5058443;28;20121;-69
2021/07/14 08:21:53;;;;;;;20.55;14.40;;;;;;;18.25;100.00;100587.28;5063054;28;20094;-70
2021/07/14 08:24:20;;;;;;;20.38;13.68;;;;;;;18.21;100.00;100588.41;5067576;28;20044;-72
2021/07/14 08:26:46;;;;;;;25.42;15.82;;;;;;;18.16;100.00;100582.50;5065029;28;20426;-71
2021/07/14 08:29:13;;;;;;;21.77;14.40;;;;;;;18.15;100.00;100586.94;5058265;28;20053;-72
2021/07/14 08:31:43;;;;;;;28.75;15.07;;;;;;;18.09;100.00;100589.06;5061548;28;20498;-71
2021/07/14 08:34:09;;;;;;;22.58;15.93;;;;;;;17.96;100.00;100594.09;5061738;28;20040;-72
2021/07/14 08:36:36;;;;;;;23.65;16.63;;;;;;;17.94;100.00;100612.56;5065021;28;20048;-72
2021/07/14 08:39:03;;;;;;;28.70;17.73;;;;;;;17.96;100.00;100616.00;5056875;28;20047;-71
2021/07/14 08:41:30;;;;;;;25.30;17.30;;;;;;;17.90;100.00;100623.34;5063042;28;20497;-70
2021/07/14 08:43:58;;;;;;;29.10;18.27;;;;;;;17.79;100.00;100622.09;5064125;28;20094;-68
2021/07/14 08:46:26;;;;;;;35.03;20.88;;;;;;;17.83;100.00;100612.28;5062432;28;20048;-69
2021/07/14 08:48:54;;;;;;;31.80;18.65;;;;;;;17.81;100.00;100593.94;5062118;28;20060;-68
2021/07/14 08:51:20;;;;;;;27.50;16.20;;;;;;;17.81;100.00;100587.84;5065051;28;20048;-67
2021/07/14 08:53:48;;;;;;;25.38;15.43;;;;;;;17.83;100.00;100596.47;5066607;28;20498;-67
2021/07/14 08:56:15;;;;;;;26.08;16.45;;;;;;;17.82;100.00;100605.31;5065869;28;20048;-66
2021/07/14 08:58:43;;;;;;;27.92;16.27;;;;;;;17.85;100.00;100607.78;5055395;28;20049;-67
2021/07/14 09:01:09;;;;;;;37.33;18.30;;;;;;;17.93;100.00;100587.19;5052508;28;20575;-68
2021/07/14 09:03:36;;;;;;;37.72;18.38;;;;;;;17.98;100.00;100561.53;5054962;28;20067;-69
2021/07/14 09:06:04;;;;;;;23.27;13.30;;;;;;;17.89;100.00;100572.50;5055284;28;20045;-68
2021/07/14 09:08:30;;;;;;;24.33;17.35;;;;;;;17.90;100.00;100586.50;5058001;28;20056;-68
2021/07/14 09:10:57;;;;;;;22.73;14.27;;;;;;;17.88;100.00;100597.13;5059543;28;20045;-70
2021/07/14 09:13:34;;;;;;;19.80;13.05;;;;;;;17.86;100.00;100589.31;5054814;28;20127;-69
2021/07/14 09:16:01;;;;;;;20.00;13.43;;;;;;;17.90;100.00;100584.72;5056497;28;20052;-69
2021/07/14 09:18:29;;;;;;;27.05;16.85;;;;;;;17.93;100.00;100584.56;5057364;28;20135;-69
2021/07/14 09:20:56;;;;;;;30.75;19.58;;;;;;;17.93;100.00;100584.56;5056159;28;20056;-70
2021/07/14 09:23:29;;;;;;;33.80;20.73;;;;;;;17.89;100.00;100583.03;5059630;28;20059;-67
2021/07/14 09:25:57;;;;;;;39.65;23.95;;;;;;;17.99;100.00;100586.91;5056559;28;20045;-66
2021/07/14 09:28:28;;;;;;;36.45;23.25;;;;;;;17.91;100.00;100583.81;5057696;28;20053;-67
2021/07/14 09:30:59;;;;;;;40.70;25.13;;;;;;;17.93;100.00;100583.72;5054527;28;20041;-69
2021/07/14 09:33:26;;;;;;;39.53;23.75;;;;;;;17.94;100.00;100585.41;5057472;28;20399;-68
2021/07/14 09:35:53;;;;;;;40.15;24.70;;;;;;;18.05;100.00;100577.84;5056900;28;20053;-67
2021/07/14 09:38:22;;;;;;;40.30;24.65;;;;;;;18.01;100.00;100585.06;5058137;28;20044;-68
2021/07/14 09:40:51;;;;;;;40.47;24.27;;;;;;;17.98;100.00;100585.22;5060804;28;20051;-69
2021/07/14 09:43:20;;;;;;;42.80;25.95;;;;;;;17.97;100.00;100583.50;5057835;28;20049;-67
2021/07/14 09:45:51;;;;;;;42.67;25.67;;;;;;;18.00;100.00;100582.47;5053723;28;20570;-68
2021/07/14 09:48:20;;;;;;;49.10;27.52;;;;;;;17.96;100.00;100578.28;5056859;28;20052;-67
2021/07/14 09:50:51;;;;;;;47.92;26.55;;;;;;;17.92;100.00;100577.59;5062216;28;20044;-68
2021/07/14 09:53:22;;;;;;;47.80;27.30;;;;;;;18.01;100.00;100579.78;5061584;28;20623;-67
2021/07/14 09:55:52;;;;;;;44.53;26.70;;;;;;;17.95;100.00;100587.97;5062180;28;20056;-66
2021/07/14 09:58:23;;;;;;;44.55;28.05;;;;;;;17.97;100.00;100591.41;5055364;28;20053;-71
2021/07/14 10:00:52;;;;;;;46.00;28.23;;;;;;;17.95;100.00;100587.97;5060719;28;20120;-68
2021/07/14 10:03:27;;;;;;;44.17;26.77;;;;;;;17.94;100.00;100591.50;5062493;28;20502;-68
2021/07/14 10:06:04;;;;;;;;;;;;;;;17.94;100.00;100588.03;5059296;28;20247;-66
2021/07/14 10:08:31;;;;;;;42.75;26.48;;;;;;;18.07;100.00;100588.28;5057173;28;19929;-67
2021/07/14 10:11:17;;;;;;;43.30;27.65;;;;;;;18.03;100.00;100593.69;5065004;28;20043;-68
2021/07/14 10:13:58;;;;;;;41.20;27.88;;;;;;;18.00;100.00;100585.13;5061090;28;20049;-66
2021/07/14 10:16:27;;;;;;;45.70;28.00;;;;;;;18.02;100.00;100585.88;5056517;28;20414;-68
2021/07/14 10:18:59;;;;;;;45.55;26.88;;;;;;;18.09;100.00;100589.06;5058628;28;20278;-66
2021/07/14 10:21:26;;;;;;;43.20;26.85;;;;;;;18.03;100.00;100591.06;5059140;28;20056;-67
2021/07/14 10:23:53;;;;;;;41.85;26.55;;;;;;;18.05;100.00;100592.75;5063193;28;20052;-66
2021/07/14 10:26:21;;;;;;;44.13;25.80;;;;;;;17.99;100.00;100588.66;5060036;28;20686;-69
2021/07/14 10:28:50;;;;;;;39.10;23.92;;;;;;;18.03;100.00;100590.22;5062362;28;20041;-66
2021/07/14 10:31:19;;;;;;;40.70;25.20;;;;;;;17.99;100.00;100591.31;5060731;28;20040;-64
2021/07/14 10:33:46;;;;;;;42.47;26.60;;;;;;;18.05;100.00;100584.88;5060389;28;20052;-66
2021/07/14 10:36:14;;;;;;;39.92;25.00;;;;;;;18.05;100.00;100583.09;5059313;28;20509;-68
2021/07/14 10:38:47;;;;;;;45.88;26.80;;;;;;;18.02;100.00;100594.63;5054454;28;20048;-67
2021/07/14 10:41:13;;;;;;;44.13;25.80;;;;;;;18.01;100.00;100598.22;5066606;28;20041;-64
2021/07/14 10:43:44;;;;;;;49.22;26.80;;;;;;;18.01;100.00;100594.72;5060606;28;20182;-63
2021/07/14 10:46:11;;;;;;;50.90;27.30;;;;;;;17.98;100.00;100601.00;5058995;28;20070;-67
2021/07/14 10:48:42;;;;;;;47.55;28.35;;;;;;;17.98;100.00;100598.38;5062681;28;20044;-67
2021/07/14 10:51:08;;;;;;;45.28;28.20;;;;;;;17.97;100.00;100607.19;5059433;28;20045;-67
2021/07/14 10:53:37;;;;;;;50.70;28.55;;;;;;;17.93;100.00;100600.34;5062029;28;20041;-68
2021/07/14 10:56:06;;;;;;;50.00;28.40;;;;;;;17.90;100.00;100603.16;5061709;28;20048;-68
2021/07/14 10:58:33;;;;;;;53.47;30.85;;;;;;;17.87;100.00;100605.94;5056879;28;20140;-63
2021/07/14 11:01:01;;;;;;;54.28;30.30;;;;;;;17.91;100.00;100606.63;5060231;28;20082;-66
2021/07/14 11:03:45;;;;;;;53.33;30.95;;;;;;;17.98;100.00;100597.50;5059574;28;20261;-65
2021/07/14 11:06:13;;;;;;;50.63;31.00;;;;;;;17.97;100.00;100601.91;5059539;28;20056;-66
2021/07/14 11:08:42;;;;;;;54.67;30.80;;;;;;;18.00;100.00;100608.78;5066819;28;20059;-66
2021/07/14 11:11:09;;;;;;;55.80;32.80;;;;;;;18.01;100.00;100603.47;5063634;28;20041;-64